Time;durP1;ratioP1;P1;durP2;ratioP2;P2;SDS_P1;SDS_P2;PMS_P1;PMS_P2;Temp;Humidity;BMP_temperature;BMP_pressure;BME280_temperature;BME280_humidity;BME280_pressure;Samples;Min_cycle;Max_cycle;Signal;HPM_P1;HPM_P2
2023/09/02 00:03:38;;;;;;;7.53;3.40;;;;;;;22.21;86.49;100244.50;10375236;28;20095;-74
2023/09/02 00:08:39;;;;;;;9.25;3.60;;;;;;;21.70;86.65;100188.75;10376110;28;20087;-74
2023/09/02 00:13:40;;;;;;;6.05;3.65;;;;;;;21.41;87.03;100143.66;10374784;28;20045;-74
2023/09/02 00:18:40;;;;;;;63.97;6.13;;;;;;;21.50;87.29;100184.63;10401142;28;20049;-73
2023/09/02 00:23:45;;;;;;;31.30;5.35;;;;;;;21.33;87.78;100181.03;10380465;28;20045;-73
2023/09/02 00:28:46;;;;;;;15.40;4.05;;;;;;;21.23;88.26;100184.38;10374204;28;20064;-73
2023/09/02 00:33:47;;;;;;;7.57;4.25;;;;;;;21.40;88.59;100225.81;10374442;28;20049;-74
2023/09/02 00:38:48;;;;;;;9.30;3.55;;;;;;;21.32;88.76;100231.56;10374653;28;20037;-73
2023/09/02 00:43:50;;;;;;;10.20;4.18;;;;;;;20.49;88.89;100100.59;10373720;28;20520;-73
2023/09/02 00:48:50;;;;;;;10.00;3.83;;;;;;;21.20;89.04;100233.50;10373779;28;20070;-73
2023/09/02 00:53:51;;;;;;;10.45;4.07;;;;;;;20.84;88.89;100168.00;10373450;28;20525;-73
2023/09/02 00:58:56;;;;;;;18.88;5.07;;;;;;;20.87;88.87;100202.59;10372670;28;20045;-75
2023/09/02 01:03:56;;;;;;;28.73;5.25;;;;;;;20.91;89.45;100224.53;10382538;28;20140;-73
2023/09/02 01:08:57;;;;;;;28.65;5.47;;;;;;;20.37;90.04;100157.28;10421474;28;20041;-73
2023/09/02 01:14:00;;;;;;;22.60;4.45;;;;;;;20.73;90.59;100217.44;10413600;28;20777;-73
2023/09/02 01:19:01;;;;;;;8.52;3.85;;;;;;;20.61;90.32;100212.06;10412609;28;20132;-74
2023/09/02 01:24:16;;;;;;;23.55;4.72;;;;;;;20.51;93.17;100191.03;10412863;28;20061;-73
2023/09/02 01:29:22;;;;;;;9.82;4.95;;;;;;;20.62;92.08;100218.28;10412532;28;20565;-73
2023/09/02 01:34:24;;;;;;;14.75;4.63;;;;;;;20.65;91.24;100231.31;10413341;28;20051;-73
2023/09/02 01:39:26;;;;;;;10.60;4.70;;;;;;;20.64;91.33;100240.44;10394093;28;20125;-73
2023/09/02 01:44:30;;;;;;;12.40;4.47;;;;;;;20.42;90.97;100227.53;10407812;28;20072;-73
2023/09/02 01:49:31;;;;;;;21.02;5.55;;;;;;;20.23;90.76;100226.84;10371801;28;20046;-73
2023/09/02 01:54:31;;;;;;;20.90;7.05;;;;;;;19.95;91.28;100187.09;10371862;28;20124;-73
2023/09/02 01:59:32;;;;;;;128.52;11.25;;;;;;;20.01;91.42;100213.13;10371919;28;20056;-72
2023/09/02 02:04:42;;;;;;;171.25;14.70;;;;;;;19.46;92.81;100127.13;10371952;28;20042;-73
2023/09/02 02:09:48;;;;;;;126.80;11.50;;;;;;;19.98;92.73;100243.25;10371433;28;20045;-73
2023/09/02 02:14:49;;;;;;;119.80;11.10;;;;;;;19.92;91.89;100227.97;10371239;28;20069;-73
2023/09/02 02:19:51;;;;;;;64.78;8.13;;;;;;;19.74;92.01;100225.38;10372233;28;20048;-73
2023/09/02 02:24:51;;;;;;;113.30;10.38;;;;;;;19.21;92.01;100130.00;10371313;28;20520;-74
2023/09/02 02:29:52;;;;;;;321.77;22.45;;;;;;;19.43;91.84;100178.75;10371451;28;20046;-74
2023/09/02 02:34:54;;;;;;;80.68;9.38;;;;;;;19.58;91.55;100203.41;10370220;28;20030;-74
2023/09/02 02:39:54;;;;;;;198.88;14.43;;;;;;;19.47;91.65;100198.78;10371796;28;20050;-75
2023/09/02 02:44:55;;;;;;;129.93;13.40;;;;;;;19.11;91.36;100149.38;10378744;28;20032;-74
2023/09/02 02:49:56;;;;;;;196.48;15.95;;;;;;;19.58;91.36;100216.88;10385231;28;20037;-73
2023/09/02 02:54:56;;;;;;;36.45;7.15;;;;;;;19.81;91.46;100242.28;10403472;28;20436;-73
2023/09/02 02:59:57;;;;;;;80.70;11.23;;;;;;;20.11;91.09;100260.25;10378294;28;20069;-74
2023/09/02 03:04:58;;;;;;;79.38;10.43;;;;;;;19.83;90.64;100207.81;10376629;28;20076;-73
2023/09/02 03:09:59;;;;;;;87.68;10.18;;;;;;;19.74;90.65;100158.84;10377198;28;20042;-73
2023/09/02 03:14:59;;;;;;;126.05;13.77;;;;;;;19.80;90.57;100133.63;10378258;28;20068;-73
2023/09/02 03:20:00;;;;;;;91.15;12.32;;;;;;;20.67;90.02;100221.06;10377529;28;20044;-73
2023/09/02 03:25:01;;;;;;;79.78;11.75;;;;;;;21.30;88.83;100249.91;10375405;28;20045;-74
2023/09/02 03:30:03;;;;;;;122.03;14.48;;;;;;;20.96;86.84;100076.13;10383507;28;20054;-74
2023/09/02 03:35:04;;;;;;;24.23;7.93;;;;;;;21.94;84.02;100102.88;10376259;28;20107;-74
2023/09/02 03:40:05;;;;;;;41.50;6.88;;;;;;;23.88;81.56;100265.00;10394377;28;20124;-74
2023/09/02 03:45:09;;;;;;;34.03;6.55;;;;;;;24.26;78.92;100208.81;10417848;28;20128;-74
2023/09/02 03:50:10;;;;;;;;;;;;;;;25.98;74.83;100249.69;10423580;28;20075;-74
2023/09/02 03:55:10;;;;;;;13.48;4.68;;;;;;;25.85;75.19;100251.88;10449412;28;19955;-74
2023/09/02 04:00:13;;;;;;;46.83;6.47;;;;;;;26.36;73.59;100254.53;10458182;28;20515;-74
2023/09/02 04:05:13;;;;;;;83.38;7.43;;;;;;;26.29;71.91;100163.31;10424610;28;20029;-75
2023/09/02 04:10:14;;;;;;;14.00;3.45;;;;;;;27.36;69.73;100254.78;10415495;28;20494;-73
2023/09/02 04:15:15;;;;;;;15.13;3.95;;;;;;;27.50;68.42;100198.50;10422017;28;20037;-73
2023/09/02 04:20:16;;;;;;;24.92;3.70;;;;;;;28.16;67.44;100244.38;10379005;28;20057;-74
2023/09/02 04:25:19;;;;;;;9.60;3.80;;;;;;;28.14;66.59;100218.44;10400137;28;20064;-73
2023/09/02 04:30:24;;;;;;;28.85;4.20;;;;;;;28.29;65.18;100201.09;10409681;28;20497;-73
2023/09/02 04:35:24;;;;;;;5.55;2.80;;;;;;;28.66;64.61;100214.09;10404326;28;20049;-72
2023/09/02 04:40:26;;;;;;;14.15;3.60;;;;;;;28.52;65.08;100224.91;10385032;28;20096;-73
2023/09/02 04:45:27;;;;;;;8.25;3.15;;;;;;;28.61;64.38;100228.63;10373856;28;20080;-74
2023/09/02 04:50:27;;;;;;;11.25;3.58;;;;;;;28.47;64.88;100230.41;10405965;28;20128;-75
2023/09/02 04:55:29;;;;;;;15.90;3.75;;;;;;;28.48;64.88;100245.72;10396635;28;20050;-74
2023/09/02 05:00:30;;;;;;;7.50;3.53;;;;;;;27.64;66.18;100179.53;10373163;28;20441;-74
2023/09/02 05:05:34;;;;;;;11.50;4.18;;;;;;;27.53;68.12;100222.47;10372200;28;20133;-74
2023/09/02 05:10:34;;;;;;;14.18;3.67;;;;;;;27.45;68.31;100206.69;10369781;28;20044;-74
2023/09/02 05:15:36;;;;;;;8.23;3.92;;;;;;;27.88;68.02;100247.88;10377307;28;20042;-76
2023/09/02 05:20:40;;;;;;;11.35;4.47;;;;;;;28.09;68.37;100248.50;10388107;28;20049;-74
2023/09/02 05:25:41;;;;;;;14.80;3.70;;;;;;;28.22;67.22;100228.75;10421774;28;20060;-74
2023/09/02 05:30:41;;;;;;;15.85;3.75;;;;;;;28.15;66.03;100192.75;10469394;28;20523;-74
2023/09/02 05:35:43;;;;;;;196.00;13.10;;;;;;;28.63;66.08;100242.81;10489441;28;20037;-73
2023/09/02 05:40:44;;;;;;;32.25;5.65;;;;;;;28.66;65.72;100255.91;10489161;28;20051;-73
2023/09/02 05:45:47;;;;;;;15.70;4.07;;;;;;;28.54;65.42;100235.53;10488677;28;20036;-73
2023/09/02 05:50:47;;;;;;;20.63;3.70;;;;;;;28.47;64.69;100178.50;10430219;28;20041;-72
2023/09/02 05:55:55;;;;;;;4.93;3.22;;;;;;;28.97;63.59;100241.84;10448509;28;20036;-73
2023/09/02 06:00:59;;;;;;;17.83;3.80;;;;;;;28.92;62.18;100238.38;10444776;28;20045;-72
2023/09/02 06:05:59;;;;;;;25.95;5.03;;;;;;;28.80;62.55;100247.00;10454347;28;20044;-71
2023/09/02 06:11:00;;;;;;;20.80;3.92;;;;;;;28.83;61.82;100219.88;10455650;28;20570;-72
2023/09/02 06:16:03;;;;;;;13.25;4.00;;;;;;;29.14;60.79;100241.41;10495999;28;20051;-71
2023/09/02 06:21:22;;;;;;;5.00;2.75;;;;;;;29.22;59.19;100242.66;10485499;28;20040;-72
2023/09/02 06:26:24;;;;;;;7.32;2.80;;;;;;;29.12;58.96;100249.09;10469524;28;20077;-73
2023/09/02 06:31:25;;;;;;;8.80;2.88;;;;;;;29.14;57.92;100233.19;10444218;28;20041;-72
2023/09/02 06:36:25;;;;;;;15.73;3.15;;;;;;;28.98;57.80;100191.53;10460448;28;20123;-73
2023/09/02 06:41:26;;;;;;;15.45;3.15;;;;;;;29.27;57.02;100196.06;10461705;28;20477;-72
2023/09/02 06:46:27;;;;;;;26.20;3.92;;;;;;;29.79;55.84;100246.19;10461046;28;20037;-74
2023/09/02 06:51:27;;;;;;;25.17;3.67;;;;;;;29.73;54.82;100193.44;10459505;28;20047;-75
2023/09/02 06:56:28;;;;;;;18.35;2.58;;;;;;;30.31;53.42;100235.22;10459621;28;20048;-74
2023/09/02 07:01:29;;;;;;;20.13;3.00;;;;;;;30.47;52.67;100252.97;10460199;28;20033;-74
2023/09/02 07:06:30;;;;;;;11.88;2.58;;;;;;;30.66;50.88;100250.13;10460191;28;20044;-75
2023/09/02 07:11:31;;;;;;;8.45;2.65;;;;;;;30.46;50.22;100197.34;10460040;28;20124;-75
2023/09/02 07:16:32;;;;;;;9.07;2.63;;;;;;;30.28;48.83;100170.88;10486014;28;20051;-74
2023/09/02 07:21:33;;;;;;;7.03;2.53;;;;;;;30.82;48.52;100224.09;10478094;28;20132;-74
2023/09/02 07:26:33;;;;;;;12.60;2.70;;;;;;;30.77;47.90;100215.13;10479419;28;20206;-75
2023/09/02 07:31:34;;;;;;;18.88;3.15;;;;;;;30.97;49.01;100222.94;10408110;28;20165;-74
2023/09/02 07:36:35;;;;;;;59.20;4.68;;;;;;;31.15;49.30;100224.72;10476669;28;20099;-73
2023/09/02 07:41:36;;;;;;;11.27;3.00;;;;;;;30.99;47.30;100212.44;10461005;28;20044;-72
2023/09/02 07:46:36;;;;;;;10.75;2.83;;;;;;;30.97;46.84;100227.63;10412564;28;20505;-73
2023/09/02 07:51:37;;;;;;;7.65;2.80;;;;;;;31.13;46.40;100217.94;10459937;28;20055;-75
2023/09/02 07:56:38;;;;;;;10.27;2.83;;;;;;;31.34;43.75;100204.53;10490735;28;20098;-74
2023/09/02 08:01:39;;;;;;;9.27;2.85;;;;;;;31.29;43.44;100215.63;10457681;28;20086;-76
2023/09/02 08:06:42;;;;;;;8.27;2.60;;;;;;;31.26;42.39;100158.63;10469200;28;20040;-74
2023/09/02 08:11:44;;;;;;;39.92;4.40;;;;;;;31.64;43.25;100205.78;10460494;28;20122;-78
2023/09/02 08:16:44;;;;;;;15.07;2.87;;;;;;;31.61;42.88;100200.91;10457362;28;20052;-69
2023/09/02 08:21:45;;;;;;;11.98;2.60;;;;;;;31.73;41.90;100181.91;10457098;28;20051;-68
2023/09/02 08:33:28;;;;;;;22.10;3.17;;;;;;;32.06;40.00;100206.38;10527583;28;20422;-77
2023/09/02 08:38:29;;;;;;;17.17;3.13;;;;;;;31.60;39.72;100134.19;10530279;28;20086;-78
2023/09/02 08:43:31;;;;;;;19.48;2.95;;;;;;;32.36;39.55;100203.94;10537868;28;20508;-72
2023/09/02 08:48:37;;;;;;;16.10;3.00;;;;;;;32.80;38.08;100197.47;10538179;28;20127;-74
2023/09/02 08:53:38;;;;;;;11.52;2.80;;;;;;;32.73;37.75;100191.66;10496502;28;20272;-78
2023/09/02 08:58:40;;;;;;;13.90;2.53;;;;;;;32.91;37.46;100184.22;10505985;28;20040;-81
2023/09/02 09:03:44;;;;;;;22.10;3.30;;;;;;;32.89;37.21;100180.97;10520843;28;20040;-73
2023/09/02 09:08:52;;;;;;;14.30;2.95;;;;;;;32.72;35.93;100185.31;10519881;28;20403;-76
2023/09/02 09:13:56;;;;;;;21.13;3.10;;;;;;;32.23;36.61;100146.00;10510801;28;20490;-76
2023/09/02 09:19:01;;;;;;;8.15;2.40;;;;;;;32.75;35.92;100181.09;10536575;28;20044;-76
2023/09/02 09:24:02;;;;;;;8.30;2.70;;;;;;;32.89;35.77;100175.47;10488385;28;20046;-85
2023/09/02 09:29:03;;;;;;;9.60;2.83;;;;;;;32.96;36.12;100156.53;10530202;28;20122;-85
2023/09/02 09:34:05;;;;;;;12.95;2.83;;;;;;;32.81;35.62;100091.00;10565220;28;20082;-76
2023/09/02 09:39:08;;;;;;;7.00;2.40;;;;;;;33.01;34.76;100142.66;10579549;28;20051;-78
2023/09/02 09:44:17;;;;;;;17.05;2.92;;;;;;;33.42;35.51;100185.41;10580012;28;20092;-75
2023/09/02 09:49:29;;;;;;;7.15;2.70;;;;;;;33.46;35.59;100188.31;10575220;28;20074;-83
2023/09/02 09:54:56;;;;;;;25.60;3.65;;;;;;;33.59;32.95;100163.34;10569420;28;20146;-74
2023/09/02 09:59:57;;;;;;;5.72;2.30;;;;;;;33.48;33.10;100161.25;10545373;28;20131;-73
2023/09/02 10:05:00;;;;;;;23.05;3.30;;;;;;;33.30;32.71;100155.78;10556871;28;20067;-75
2023/09/02 10:10:01;;;;;;;;;;;;;;;33.46;33.96;100166.28;10540070;28;20059;-75
2023/09/02 10:15:02;;;;;;;47.58;9.82;;;;;;;33.10;32.87;100110.44;10536855;28;20431;-73
2023/09/02 10:20:04;;;;;;;23.25;3.80;;;;;;;33.14;32.75;100149.94;10536283;28;20134;-76
2023/09/02 10:25:19;;;;;;;24.75;8.63;;;;;;;33.33;31.80;100149.63;10536580;28;20039;-73
2023/09/02 10:30:25;;;;;;;13.93;3.42;;;;;;;33.37;32.31;100161.59;10566438;28;20044;-73
2023/09/02 10:35:29;;;;;;;11.20;3.22;;;;;;;33.06;31.96;100145.25;10577254;28;20059;-74
2023/09/02 10:40:40;;;;;;;22.85;3.20;;;;;;;32.95;32.89;100138.41;10568017;28;20044;-75
2023/09/02 10:45:42;;;;;;;12.85;2.60;;;;;;;32.00;32.55;100042.81;10567136;28;20494;-74
2023/09/02 10:50:43;;;;;;;9.45;2.50;;;;;;;32.41;31.87;100102.88;10559795;28;20061;-74
2023/09/02 10:56:01;;;;;;;20.27;3.20;;;;;;;33.38;30.70;100134.84;10576862;28;20047;-76
2023/09/02 11:01:02;;;;;;;10.48;2.83;;;;;;;33.72;30.00;100122.19;10577186;28;20044;-75
2023/09/02 11:06:05;;;;;;;7.97;2.88;;;;;;;33.78;30.14;100115.38;10564320;28;20036;-75
2023/09/02 11:11:05;;;;;;;18.40;3.30;;;;;;;34.03;30.57;100127.44;10560192;28;20043;-73
2023/09/02 11:16:17;;;;;;;7.65;2.35;;;;;;;34.50;28.46;100113.59;10558610;28;20043;-72
2023/09/02 11:21:39;;;;;;;10.53;2.63;;;;;;;34.79;28.13;100112.75;10574380;28;20039;-71
2023/09/02 11:26:54;;;;;;;7.13;2.63;;;;;;;34.88;27.68;100129.22;10575104;28;20050;-73
2023/09/02 11:31:59;;;;;;;49.72;5.22;;;;;;;34.29;28.11;100063.91;10547377;28;20146;-73
2023/09/02 11:37:03;;;;;;;25.85;3.70;;;;;;;34.11;29.13;100070.69;10569046;28;20036;-71
2023/09/02 11:42:12;;;;;;;15.05;3.45;;;;;;;34.19;28.25;100113.91;10558638;28;20043;-72
2023/09/02 11:47:14;;;;;;;23.27;3.50;;;;;;;34.19;28.72;100089.91;10553782;28;20051;-71
2023/09/02 11:52:15;;;;;;;13.20;2.95;;;;;;;33.85;28.99;100066.06;10572487;28;20047;-70
2023/09/02 11:57:18;;;;;;;11.27;3.20;;;;;;;33.72;28.51;100081.69;10560833;28;20060;-75
2023/09/02 12:02:19;;;;;;;11.20;3.08;;;;;;;33.74;29.65;100093.16;10549503;28;20457;-74
2023/09/02 12:07:21;;;;;;;14.70;3.22;;;;;;;33.64;29.62;100097.09;10569338;28;20103;-74
2023/09/02 12:12:22;;;;;;;12.07;3.27;;;;;;;33.39;30.15;100060.22;10561768;28;20101;-73
2023/09/02 12:17:23;;;;;;;8.05;2.72;;;;;;;33.75;30.02;100116.03;10565366;28;20309;-72
2023/09/02 12:22:25;;;;;;;9.77;3.17;;;;;;;33.76;30.49;100120.38;10545915;28;20036;-73
2023/09/02 12:27:25;;;;;;;20.77;3.60;;;;;;;33.91;30.29;100114.34;10576608;28;20047;-80
2023/09/02 12:32:26;;;;;;;18.25;3.20;;;;;;;33.72;29.63;100067.09;10580923;28;20058;-73
2023/09/02 12:37:27;;;;;;;15.68;2.80;;;;;;;34.14;29.42;100103.91;10581511;28;20085;-72
2023/09/02 12:42:29;;;;;;;25.48;3.35;;;;;;;34.03;28.63;100117.22;10563277;28;20042;-80
2023/09/02 12:47:30;;;;;;;12.23;2.75;;;;;;;33.56;28.29;100125.44;10576856;28;20039;-73
2023/09/02 12:52:32;;;;;;;21.85;3.30;;;;;;;33.24;28.21;100135.06;10558359;28;20048;-75
2023/09/02 12:57:35;;;;;;;12.85;3.00;;;;;;;33.35;28.04;100130.00;10546583;28;20039;-72
2023/09/02 13:02:36;;;;;;;32.92;4.00;;;;;;;33.52;27.90;100124.50;10562068;28;20031;-74
2023/09/02 13:07:36;;;;;;;23.10;4.20;;;;;;;33.44;27.90;100107.97;10555614;28;20505;-74
2023/09/02 13:12:38;;;;;;;8.32;2.60;;;;;;;33.55;27.84;100126.59;10561636;28;20084;-82
2023/09/02 13:17:39;;;;;;;18.80;3.28;;;;;;;33.63;27.47;100127.72;10560189;28;20044;-73
2023/09/02 13:22:40;;;;;;;9.35;2.63;;;;;;;33.29;27.34;100131.31;10566563;28;20414;-72
2023/09/02 13:27:42;;;;;;;18.67;2.80;;;;;;;32.78;27.36;100100.69;10558521;28;20035;-72
2023/09/02 13:32:43;;;;;;;22.30;3.80;;;;;;;32.69;27.70;100078.69;10551816;28;20055;-73
2023/09/02 13:37:46;;;;;;;13.52;2.58;;;;;;;32.87;27.04;100134.50;10567231;28;20040;-71
2023/09/02 13:42:47;;;;;;;37.00;3.90;;;;;;;32.85;27.06;100136.81;10561409;28;20043;-72
2023/09/02 13:47:49;;;;;;;18.10;3.00;;;;;;;32.46;26.38;100089.03;10566813;27;20126;-73
2023/09/02 13:52:52;;;;;;;62.00;32.67;;;;;;;32.64;26.84;100139.38;10561661;28;20461;-72
2023/09/02 13:57:53;;;;;;;45.05;13.75;;;;;;;32.47;27.16;100129.13;10565465;28;20043;-73
2023/09/02 14:02:55;;;;;;;30.75;10.15;;;;;;;32.46;27.36;100138.50;10567248;28;20050;-75
2023/09/02 14:08:04;;;;;;;30.52;14.65;;;;;;;32.41;26.76;100130.38;10565531;28;20043;-82
2023/09/02 14:13:08;;;;;;;41.20;11.18;;;;;;;31.84;26.95;100056.94;10553404;28;20075;-73
2023/09/02 14:18:09;;;;;;;32.05;10.93;;;;;;;32.16;27.25;100128.34;10566805;28;20130;-76
2023/09/02 14:23:10;;;;;;;21.50;4.50;;;;;;;32.10;27.13;100138.69;10558343;28;20379;-77
2023/09/02 14:28:11;;;;;;;21.77;3.78;;;;;;;31.93;28.05;100136.66;10556688;28;20104;-76
2023/09/02 14:33:12;;;;;;;51.97;5.55;;;;;;;31.53;28.60;100094.56;10560495;28;20619;-73
2023/09/02 14:38:13;;;;;;;236.73;15.98;;;;;;;30.97;30.02;100054.81;10582104;28;20054;-75
2023/09/02 14:43:14;;;;;;;41.80;4.05;;;;;;;31.37;29.75;100155.34;10585093;28;20494;-80
2023/09/02 14:48:15;;;;;;;31.60;3.85;;;;;;;31.21;28.68;100159.56;10587463;28;20043;-78
2023/09/02 14:53:15;;;;;;;19.35;3.33;;;;;;;31.07;27.87;100153.31;10585313;28;20040;-73
2023/09/02 15:03:32;;;;;;;30.33;4.63;;;;;;;30.92;27.32;100152.53;12437185;22;20116;-58
2023/09/02 15:08:35;;;;;;;72.28;5.82;;;;;;;30.47;27.64;100111.25;10517199;28;20135;-58
2023/09/02 15:13:36;;;;;;;;;;;;;;;30.79;27.84;100166.28;10529589;28;20050;-59
2023/09/02 15:18:37;;;;;;;18.52;3.30;;;;;;;30.37;28.33;100160.81;10512282;28;19920;-58
2023/09/02 15:23:43;;;;;;;12.57;2.97;;;;;;;30.13;28.90;100165.66;10537617;28;20047;-59
2023/09/02 15:28:44;;;;;;;16.40;3.35;;;;;;;29.88;28.99;100151.28;10540931;28;20127;-59
2023/09/02 15:33:46;;;;;;;12.23;2.35;;;;;;;29.80;29.28;100176.66;10533113;28;20036;-58
2023/09/02 15:38:48;;;;;;;43.40;4.57;;;;;;;29.54;29.98;100171.56;10540149;28;20044;-58
2023/09/02 15:43:52;;;;;;;41.10;4.40;;;;;;;29.24;30.38;100159.19;10535078;28;20106;-59
2023/09/02 15:48:53;;;;;;;24.95;3.30;;;;;;;29.19;30.10;100183.06;10535579;28;20038;-58
2023/09/02 15:53:54;;;;;;;48.53;4.40;;;;;;;28.98;31.01;100177.84;10537326;28;20046;-58
2023/09/02 15:58:54;;;;;;;90.47;8.63;;;;;;;28.74;31.34;100177.91;10534613;28;20571;-59
2023/09/02 16:03:55;;;;;;;123.68;9.57;;;;;;;28.21;34.24;100192.44;10513407;28;20134;-59
2023/09/02 16:08:56;;;;;;;98.97;9.27;;;;;;;27.78;35.98;100199.66;10519579;28;20480;-59
2023/09/02 16:13:57;;;;;;;129.13;11.98;;;;;;;27.45;36.57;100214.88;10502299;28;20048;-60
2023/09/02 16:18:57;;;;;;;88.68;11.95;;;;;;;27.09;37.95;100209.63;10508922;28;20047;-58
2023/09/02 16:23:58;;;;;;;81.85;12.82;;;;;;;26.83;38.76;100226.13;10512798;28;20045;-58
2023/09/02 16:29:00;;;;;;;126.10;14.60;;;;;;;26.51;39.98;100237.38;10518158;28;20456;-58
2023/09/02 16:34:04;;;;;;;106.57;12.85;;;;;;;26.23;42.01;100238.75;10525942;28;20040;-59
2023/09/02 16:39:05;;;;;;;67.72;11.23;;;;;;;26.03;41.88;100241.53;10534324;28;20100;-59
2023/09/02 16:44:07;;;;;;;97.50;11.95;;;;;;;25.76;43.09;100241.75;10534094;28;20124;-58
2023/09/02 16:49:16;;;;;;;94.13;11.07;;;;;;;25.64;43.77;100252.91;10530093;28;20036;-59
2023/09/02 16:54:17;;;;;;;42.50;9.43;;;;;;;25.44;41.35;100224.59;10538972;28;20126;-58
2023/09/02 16:59:18;;;;;;;36.05;7.50;;;;;;;25.73;40.34;100251.28;10536979;28;20071;-58
2023/09/02 17:04:19;;;;;;;32.30;6.28;;;;;;;25.94;39.62;100246.69;10538397;28;20083;-58
2023/09/02 17:09:20;;;;;;;38.55;5.93;;;;;;;26.13;38.35;100245.03;10520293;28;20075;-59
2023/09/02 17:14:21;;;;;;;32.22;5.70;;;;;;;25.90;38.44;100189.25;10538921;28;20105;-59
2023/09/02 17:19:22;;;;;;;23.20;5.35;;;;;;;26.23;38.25;100229.78;10534818;28;20047;-59
2023/09/02 17:24:23;;;;;;;20.73;4.25;;;;;;;26.07;38.47;100193.59;10538222;28;20044;-59
2023/09/02 17:29:23;;;;;;;15.98;3.45;;;;;;;26.39;38.01;100225.94;10536628;28;20032;-59
2023/09/02 17:34:24;;;;;;;13.25;2.88;;;;;;;26.04;38.32;100169.66;10532225;28;20040;-59
2023/09/02 17:39:27;;;;;;;20.77;3.53;;;;;;;26.25;38.60;100178.59;10512996;28;20087;-59
2023/09/02 17:44:28;;;;;;;17.70;3.40;;;;;;;26.63;38.75;100223.47;10537967;28;20459;-59
2023/09/02 17:49:28;;;;;;;15.35;3.40;;;;;;;26.72;38.86;100229.16;10537136;28;20097;-59
2023/09/02 17:54:29;;;;;;;19.15;3.85;;;;;;;26.62;38.83;100228.09;10537620;28;20040;-59
2023/09/02 17:59:30;;;;;;;16.10;3.63;;;;;;;26.17;39.29;100174.50;10537618;28;20044;-59
2023/09/02 18:04:31;;;;;;;20.88;3.78;;;;;;;26.48;39.73;100229.75;10537212;28;20052;-57
2023/09/02 18:09:32;;;;;;;20.30;4.25;;;;;;;26.06;40.14;100170.22;10537349;28;20044;-57
2023/09/02 18:14:32;;;;;;;19.08;3.70;;;;;;;26.24;40.23;100226.78;10542025;28;20040;-58
2023/09/02 18:19:33;;;;;;;19.55;3.72;;;;;;;26.18;40.53;100227.91;10545499;28;20039;-58
2023/09/02 18:24:35;;;;;;;12.65;3.25;;;;;;;25.94;40.76;100225.75;10545177;28;20048;-58
2023/09/02 18:29:36;;;;;;;19.17;3.77;;;;;;;25.94;41.08;100231.19;10527470;28;20036;-58
2023/09/02 18:34:37;;;;;;;18.80;5.20;;;;;;;25.55;41.47;100175.63;10517166;28;20047;-58
2023/09/02 18:39:38;;;;;;;22.58;4.03;;;;;;;25.71;42.26;100228.97;10502709;28;20070;-58
2023/09/02 18:44:39;;;;;;;17.73;3.83;;;;;;;25.66;42.48;100231.66;10509861;28;20423;-58
2023/09/02 18:49:39;;;;;;;21.90;3.13;;;;;;;25.26;42.58;100176.16;10512082;28;20036;-59
2023/09/02 18:54:40;;;;;;;9.00;3.25;;;;;;;25.50;42.64;100225.41;10501749;28;20036;-59
2023/09/02 18:59:41;;;;;;;17.27;3.22;;;;;;;25.48;42.71;100225.66;10502233;28;20044;-59
2023/09/02 19:04:42;;;;;;;18.52;3.42;;;;;;;25.16;43.33;100184.28;10501669;28;20060;-59
2023/09/02 19:09:42;;;;;;;14.50;3.40;;;;;;;25.37;43.49;100215.88;10501527;28;20041;-59
2023/09/02 19:14:43;;;;;;;13.65;3.50;;;;;;;25.28;43.90;100214.78;10518425;28;20444;-57
2023/09/02 19:19:44;;;;;;;24.58;4.32;;;;;;;25.23;44.69;100214.75;10507318;28;20139;-60
2023/09/02 19:24:45;;;;;;;22.50;4.50;;;;;;;25.15;44.80;100216.06;10541281;28;20085;-58
2023/09/02 19:29:46;;;;;;;16.58;3.83;;;;;;;25.04;45.98;100207.06;10535777;28;20090;-58
2023/09/02 19:34:47;;;;;;;23.15;4.10;;;;;;;24.90;46.69;100210.56;10500292;28;20537;-57
2023/09/02 19:39:47;;;;;;;15.48;3.95;;;;;;;24.81;47.52;100205.63;10499869;28;20068;-58
2023/09/02 19:44:48;;;;;;;14.38;3.05;;;;;;;24.66;48.13;100185.72;10500340;28;20048;-59
2023/09/02 19:49:50;;;;;;;20.48;3.70;;;;;;;24.72;49.30;100200.97;10500610;28;20180;-59
2023/09/02 19:54:51;;;;;;;23.95;3.53;;;;;;;24.66;50.03;100196.59;10500441;28;20136;-58
2023/09/02 19:59:52;;;;;;;18.17;3.40;;;;;;;24.59;50.67;100194.94;10499192;28;20460;-58
2023/09/02 20:04:56;;;;;;;11.80;3.05;;;;;;;24.30;51.48;100145.63;10499613;28;20139;-58
2023/09/02 20:09:57;;;;;;;21.95;3.40;;;;;;;24.46;52.06;100192.69;10499366;28;20527;-58
2023/09/02 20:14:58;;;;;;;13.90;3.53;;;;;;;24.07;52.52;100144.13;10499012;28;20040;-58
2023/09/02 20:19:59;;;;;;;16.23;3.17;;;;;;;24.35;53.25;100196.38;10498343;28;20040;-58
2023/09/02 20:24:59;;;;;;;17.98;3.05;;;;;;;24.23;53.42;100193.91;10498177;28;20044;-58
2023/09/02 20:30:00;;;;;;;16.63;3.42;;;;;;;24.19;54.17;100186.53;10498576;28;20036;-58
2023/09/02 20:35:01;;;;;;;10.00;3.20;;;;;;;24.06;54.68;100171.53;10498572;28;20032;-58
2023/09/02 20:40:03;;;;;;;11.25;3.05;;;;;;;24.00;55.32;100172.59;10520604;28;20075;-58
2023/09/02 20:45:04;;;;;;;12.18;2.70;;;;;;;23.65;56.05;100123.19;10536065;28;20046;-58
2023/09/02 20:50:05;;;;;;;7.63;2.45;;;;;;;23.64;56.84;100139.75;10510223;28;20040;-58
2023/09/02 20:55:06;;;;;;;16.70;3.38;;;;;;;23.75;57.64;100159.63;10497238;28;20060;-59
2023/09/02 21:00:07;;;;;;;13.20;3.25;;;;;;;23.84;58.11;100179.78;10497054;28;20048;-58
2023/09/02 21:05:08;;;;;;;10.45;3.30;;;;;;;23.52;58.65;100133.69;10505620;28;20079;-58
2023/09/02 21:10:09;;;;;;;13.50;3.42;;;;;;;23.64;59.31;100154.09;10520042;28;20035;-59
2023/09/02 21:15:10;;;;;;;12.43;3.17;;;;;;;23.43;59.90;100119.78;10538805;28;20376;-60
2023/09/02 21:20:11;;;;;;;9.95;3.58;;;;;;;23.68;60.63;100155.22;10522568;28;20040;-59
2023/09/02 21:25:12;;;;;;;7.90;2.97;;;;;;;23.68;61.18;100159.81;10495939;28;20103;-59
2023/09/02 21:30:13;;;;;;;8.27;3.67;;;;;;;23.49;61.93;100143.13;10496477;28;20051;-60
2023/09/02 21:35:15;;;;;;;17.08;3.60;;;;;;;23.16;62.56;100098.94;10496483;28;20045;-59
2023/09/02 21:40:16;;;;;;;11.02;3.97;;;;;;;23.21;63.15;100109.00;10527651;28;20058;-60
2023/09/02 21:45:16;;;;;;;31.15;4.55;;;;;;;23.47;63.66;100154.22;10519071;28;20050;-60
2023/09/02 21:50:17;;;;;;;13.05;3.42;;;;;;;23.36;64.14;100130.84;10537176;28;20046;-59
2023/09/02 21:55:18;;;;;;;10.00;3.53;;;;;;;23.47;64.38;100148.00;10537051;28;20074;-59
2023/09/02 22:00:18;;;;;;;16.20;4.38;;;;;;;23.46;64.67;100140.94;10537278;28;20050;-59
2023/09/02 22:05:19;;;;;;;20.70;3.95;;;;;;;23.10;65.23;100105.38;10537551;28;20052;-59
2023/09/02 22:10:20;;;;;;;15.30;3.78;;;;;;;23.26;65.98;100140.75;10537538;28;20036;-59
2023/09/02 22:15:22;;;;;;;18.42;3.30;;;;;;;22.82;66.34;100073.09;10536597;28;20128;-59
2023/09/02 22:20:24;;;;;;;16.38;4.20;;;;;;;23.19;66.54;100132.84;10536978;28;20032;-59
2023/09/02 22:25:24;;;;;;;12.43;4.10;;;;;;;23.15;67.35;100129.00;10537131;28;20091;-59
2023/09/02 22:30:25;;;;;;;7.20;3.80;;;;;;;23.05;67.65;100135.13;10537136;28;20083;-59
2023/09/02 22:35:26;;;;;;;9.30;3.55;;;;;;;23.04;67.92;100119.97;10518909;28;20478;-59
2023/09/02 22:40:30;;;;;;;12.77;3.85;;;;;;;23.05;68.14;100135.13;10537039;28;20052;-59
2023/09/02 22:45:34;;;;;;;13.93;4.05;;;;;;;23.04;68.75;100127.28;10537096;28;20035;-59
2023/09/02 22:50:35;;;;;;;14.88;3.90;;;;;;;22.95;69.14;100124.22;10515475;28;20067;-59
2023/09/02 22:55:37;;;;;;;7.82;3.70;;;;;;;22.96;69.44;100123.94;10500806;28;20075;-59
2023/09/02 23:00:39;;;;;;;8.35;3.50;;;;;;;22.79;69.78;100106.94;10541498;28;20051;-59
2023/09/02 23:05:39;;;;;;;8.50;3.90;;;;;;;22.78;69.77;100116.13;10544343;28;20094;-60